createdAt,value
2017-11-09T00:01:35.181Z,51.17
2017-11-09T00:04:09.554Z,52.15
2017-11-09T00:06:37.555Z,52.40
2017-11-09T00:09:05.636Z,52.72
2017-11-09T00:11:33.611Z,51.72
2017-11-09T00:14:02.407Z,53.40
2017-11-09T00:16:34.061Z,60.33
2017-11-09T00:19:01.967Z,60.78
2017-11-09T00:21:29.924Z,54.58
2017-11-09T00:23:57.828Z,64.82
2017-11-09T00:26:25.786Z,66.10
2017-11-09T00:28:53.685Z,63.45
2017-11-09T00:31:21.649Z,59.95
2017-11-09T00:33:53.441Z,70.85
2017-11-09T00:36:22.152Z,90.43
2017-11-09T00:38:50.054Z,88.62
2017-11-09T00:41:18.005Z,71.12
2017-11-09T00:43:45.905Z,84.47
2017-11-09T00:46:13.850Z,64.47
2017-11-09T00:48:41.751Z,64.37
2017-11-09T00:51:09.693Z,113.80
2017-11-09T00:53:37.593Z,75.75
2017-11-09T00:56:05.562Z,112.65
2017-11-09T00:58:33.451Z,93.57
2017-11-09T01:01:02.288Z,74.75
2017-11-09T01:03:30.376Z,106.50
2017-11-09T01:05:58.292Z,159.10
2017-11-09T01:08:26.249Z,95.55
2017-11-09T01:10:54.149Z,91.90
2017-11-09T01:13:22.109Z,127.62
2017-11-09T01:15:50.012Z,131.55
2017-11-09T01:18:17.977Z,108.00
2017-11-09T01:20:45.901Z,126.43
2017-11-09T01:23:14.635Z,132.55
2017-11-09T01:25:42.566Z,136.57
2017-11-09T01:28:10.513Z,99.45
2017-11-09T01:30:38.438Z,146.68
2017-11-09T01:33:07.580Z,100.05
2017-11-09T01:35:35.549Z,153.98
2017-11-09T01:38:03.525Z,108.43
2017-11-09T01:40:31.467Z,125.93
2017-11-09T01:42:59.434Z,117.28
2017-11-09T01:45:27.374Z,152.30
2017-11-09T01:47:55.335Z,141.57
2017-11-09T01:50:23.511Z,158.82
2017-11-09T01:52:51.471Z,194.93
2017-11-09T01:55:19.404Z,207.65
2017-11-09T01:57:47.375Z,247.18
2017-11-09T02:00:15.363Z,173.10
2017-11-09T02:02:43.508Z,154.73
2017-11-09T02:05:11.424Z,178.70
2017-11-09T02:07:39.437Z,189.32
2017-11-09T02:10:07.366Z,261.45
2017-11-09T02:12:35.331Z,188.43
2017-11-09T02:15:03.264Z,190.90
2017-11-09T02:17:31.242Z,215.68
2017-11-09T02:19:59.215Z,235.77
2017-11-09T02:22:27.841Z,214.20
2017-11-09T02:24:55.835Z,238.55
2017-11-09T02:27:23.884Z,253.90
2017-11-09T02:29:51.885Z,207.23
2017-11-09T02:32:21.082Z,214.23
2017-11-09T02:34:49.070Z,200.55
2017-11-09T02:37:17.065Z,162.43
2017-11-09T02:39:44.992Z,178.32
2017-11-09T02:42:12.957Z,208.85
2017-11-09T02:44:40.917Z,213.07
2017-11-09T02:47:08.955Z,184.37
2017-11-09T02:49:36.931Z,186.23
2017-11-09T02:52:04.916Z,163.85
2017-11-09T02:54:32.840Z,149.90
2017-11-09T02:57:00.882Z,154.60
2017-11-09T02:59:28.880Z,152.10
2017-11-09T03:01:56.945Z,160.10
2017-11-09T03:04:24.880Z,154.65
2017-11-09T03:06:52.837Z,188.10
2017-11-09T03:09:20.741Z,161.25
2017-11-09T03:11:48.724Z,167.18
2017-11-09T03:14:16.674Z,158.90
2017-11-09T03:16:44.657Z,151.12
2017-11-09T03:19:12.561Z,152.70
2017-11-09T03:21:40.568Z,151.00
2017-11-09T03:24:08.487Z,161.25
2017-11-09T03:26:36.389Z,136.75
2017-11-09T03:29:04.347Z,133.55
2017-11-09T03:31:32.252Z,136.60
2017-11-09T03:34:00.190Z,119.95
2017-11-09T03:36:28.103Z,130.75
2017-11-09T03:38:56.062Z,117.45
2017-11-09T03:41:23.980Z,111.70
2017-11-09T03:43:51.960Z,115.80
2017-11-09T03:46:20.730Z,126.43
2017-11-09T03:48:48.645Z,130.65
2017-11-09T03:51:16.639Z,129.18
2017-11-09T03:53:45.866Z,122.15
2017-11-09T03:56:13.774Z,124.87
2017-11-09T03:58:41.726Z,106.10
2017-11-09T04:01:10.405Z,119.85
2017-11-09T04:03:38.387Z,107.25
2017-11-09T04:06:06.305Z,121.28
2017-11-09T04:08:34.259Z,95.85
2017-11-09T04:11:02.177Z,108.35
2017-11-09T04:13:30.139Z,102.62
2017-11-09T04:15:58.040Z,93.05
2017-11-09T04:18:25.992Z,91.90
2017-11-09T04:20:53.898Z,86.57
2017-11-09T04:23:25.769Z,90.43
2017-11-09T04:25:53.654Z,87.88
2017-11-09T04:28:21.601Z,97.72
2017-11-09T04:30:49.753Z,80.20
2017-11-09T04:33:18.461Z,100.85
2017-11-09T04:35:46.363Z,100.22
2017-11-09T04:38:14.310Z,86.47
2017-11-09T04:40:42.216Z,79.87
2017-11-09T04:43:10.170Z,82.65
2017-11-09T04:45:38.069Z,89.57
2017-11-09T04:48:06.038Z,99.37
2017-11-09T04:50:33.939Z,89.90
2017-11-09T04:53:02.042Z,72.03
2017-11-09T04:55:30.029Z,87.15
2017-11-09T04:57:57.997Z,90.30
2017-11-09T05:00:25.937Z,96.75
2017-11-09T05:02:59.199Z,87.82
2017-11-09T05:05:32.547Z,92.05
2017-11-09T05:08:05.630Z,90.97
2017-11-09T05:10:35.492Z,76.70
2017-11-09T05:13:05.210Z,83.07
2017-11-09T05:15:34.268Z,72.72
2017-11-09T05:18:02.305Z,114.62
2017-11-09T05:20:36.813Z,73.37
2017-11-09T05:23:04.951Z,87.03
2017-11-09T05:25:32.869Z,77.00
2017-11-09T05:28:11.588Z,80.82
2017-11-09T05:30:40.805Z,66.68
2017-11-09T05:33:08.746Z,77.90
2017-11-09T05:35:36.708Z,73.30
2017-11-09T05:38:04.663Z,79.05
2017-11-09T05:40:33.328Z,75.43
2017-11-09T05:43:01.284Z,76.60
2017-11-09T05:45:29.200Z,72.57
2017-11-09T05:47:57.917Z,73.53
2017-11-09T05:50:25.799Z,74.05
2017-11-09T05:52:53.756Z,73.55
2017-11-09T05:55:21.710Z,69.57
2017-11-09T05:57:49.717Z,55.53
2017-11-09T06:00:17.754Z,66.43
2017-11-09T06:02:45.791Z,75.72
2017-11-09T06:05:13.746Z,74.72
2017-11-09T06:07:41.731Z,66.15
2017-11-09T06:10:09.647Z,69.30
2017-11-09T06:12:37.626Z,70.32
2017-11-09T06:15:05.561Z,69.93
2017-11-09T06:17:34.255Z,70.35
2017-11-09T06:20:02.158Z,68.50
2017-11-09T06:22:30.114Z,68.32
2017-11-09T06:24:58.032Z,76.30
2017-11-09T06:27:25.998Z,66.60
2017-11-09T06:29:53.901Z,67.70
2017-11-09T06:32:24.783Z,68.72
2017-11-09T06:34:52.681Z,69.40
2017-11-09T06:37:20.583Z,79.60
2017-11-09T06:39:48.598Z,88.30
2017-11-09T06:42:16.504Z,67.22
2017-11-09T06:44:44.460Z,69.45
2017-11-09T06:47:12.349Z,70.75
2017-11-09T06:49:40.334Z,73.75
2017-11-09T06:52:08.223Z,72.50
2017-11-09T06:54:36.159Z,61.95
2017-11-09T06:57:04.859Z,74.35
2017-11-09T06:59:32.809Z,74.60
2017-11-09T07:02:04.042Z,76.35
2017-11-09T07:04:31.994Z,66.55
2017-11-09T07:06:59.893Z,76.40
2017-11-09T07:09:28.615Z,67.90
2017-11-09T07:11:56.509Z,69.75
2017-11-09T07:14:24.470Z,66.70
2017-11-09T07:16:52.356Z,67.28
2017-11-09T07:19:20.303Z,64.47
2017-11-09T07:21:48.232Z,70.60
2017-11-09T07:24:16.189Z,75.20
2017-11-09T07:26:44.121Z,71.68
2017-11-09T07:29:12.028Z,65.68
2017-11-09T07:31:40.023Z,69.97
2017-11-09T07:34:08.747Z,76.95
2017-11-09T07:36:36.660Z,74.72
2017-11-09T07:39:05.451Z,74.25
2017-11-09T07:41:34.136Z,77.28
2017-11-09T07:44:02.118Z,72.03
2017-11-09T07:46:30.027Z,77.35
2017-11-09T07:48:57.980Z,70.43
2017-11-09T07:51:25.910Z,73.90
2017-11-09T07:53:53.938Z,82.40
2017-11-09T07:56:21.830Z,80.22
2017-11-09T07:58:49.781Z,83.70
2017-11-09T08:01:17.726Z,83.03
2017-11-09T08:03:45.742Z,85.43
2017-11-09T08:06:13.642Z,82.10
2017-11-09T08:08:42.373Z,92.65
2017-11-09T08:11:10.322Z,88.00
2017-11-09T08:13:38.288Z,96.20
2017-11-09T08:16:06.211Z,77.25
2017-11-09T08:18:34.188Z,92.37
2017-11-09T08:21:02.145Z,91.20
2017-11-09T08:23:30.187Z,92.28
2017-11-09T08:26:01.097Z,95.70
2017-11-09T08:28:32.883Z,110.90
2017-11-09T08:31:02.150Z,110.63
2017-11-09T08:33:30.834Z,93.00
2017-11-09T08:35:58.815Z,93.47
2017-11-09T08:38:27.592Z,93.68
2017-11-09T08:40:56.320Z,91.35
2017-11-09T08:43:24.282Z,94.10
2017-11-09T08:45:52.196Z,89.87
2017-11-09T08:48:20.161Z,90.53
2017-11-09T08:50:48.049Z,98.70
2017-11-09T08:53:16.010Z,97.90
2017-11-09T08:55:43.936Z,94.82
2017-11-09T08:58:11.884Z,97.53
2017-11-09T09:00:39.764Z,113.75
2017-11-09T09:03:08.887Z,98.78
2017-11-09T09:05:36.797Z,101.45
2017-11-09T09:08:04.708Z,101.30
2017-11-09T09:10:32.743Z,93.72
2017-11-09T09:13:01.466Z,109.75
2017-11-09T09:15:29.470Z,98.07
2017-11-09T09:17:57.419Z,106.50
2017-11-09T09:20:35.282Z,110.37
2017-11-09T09:23:03.281Z,108.07
2017-11-09T09:25:32.023Z,99.53
2017-11-09T09:27:59.974Z,112.10
2017-11-09T09:30:28.491Z,109.95
2017-11-09T09:32:59.927Z,99.47
2017-11-09T09:38:34.450Z,104.50
2017-11-09T09:41:02.491Z,104.25
2017-11-09T09:43:31.341Z,118.32
2017-11-09T09:45:59.364Z,109.97
2017-11-09T09:48:27.315Z,102.47
2017-11-09T09:50:55.322Z,102.70
2017-11-09T09:53:23.258Z,105.82
2017-11-09T09:55:51.210Z,104.65
2017-11-09T09:58:20.117Z,105.12
2017-11-09T10:00:48.275Z,118.60
2017-11-09T10:03:16.983Z,110.07
2017-11-09T10:05:44.948Z,104.55
2017-11-09T10:08:12.861Z,100.72
2017-11-09T10:10:40.821Z,99.65
2017-11-09T10:13:08.744Z,100.30
2017-11-09T10:15:39.064Z,112.93
2017-11-09T10:18:06.948Z,105.65
2017-11-09T10:20:34.898Z,101.43
2017-11-09T10:23:07.571Z,113.28
2017-11-09T10:25:36.308Z,104.57
2017-11-09T10:28:04.287Z,112.25
2017-11-09T10:30:32.261Z,127.80
2017-11-09T10:33:01.069Z,112.88
2017-11-09T10:35:29.032Z,115.43
2017-11-09T10:37:56.964Z,109.00
2017-11-09T10:40:24.965Z,110.50
2017-11-09T10:42:52.891Z,120.05
2017-11-09T10:45:20.881Z,122.80
2017-11-09T10:47:48.828Z,126.80
2017-11-09T10:50:16.867Z,126.90
2017-11-09T10:52:46.933Z,134.68
2017-11-09T10:55:14.885Z,130.35
2017-11-09T10:57:46.089Z,115.25
2017-11-09T11:00:16.129Z,120.15
2017-11-09T11:02:44.845Z,122.68
2017-11-09T11:05:12.826Z,112.65
2017-11-09T11:07:40.720Z,105.15
2017-11-09T11:10:08.733Z,116.55
2017-11-09T11:12:36.748Z,129.07
2017-11-09T11:15:04.755Z,126.25
2017-11-09T11:17:32.707Z,126.28
2017-11-09T11:20:00.729Z,123.53
2017-11-09T11:22:29.405Z,121.78
2017-11-09T11:24:57.322Z,128.25
2017-11-09T11:27:25.309Z,112.53
2017-11-09T11:29:53.302Z,121.00
2017-11-09T11:32:21.345Z,116.60
2017-11-09T11:34:49.251Z,114.60
2017-11-09T11:37:17.229Z,117.00
2017-11-09T11:39:45.900Z,126.95
2017-11-09T11:42:13.864Z,105.07
2017-11-09T11:44:41.792Z,105.35
2017-11-09T11:47:13.632Z,98.95
2017-11-09T11:49:45.664Z,111.88
2017-11-09T11:52:13.634Z,105.47
2017-11-09T11:54:41.608Z,108.30
2017-11-09T11:57:09.587Z,102.53
2017-11-09T11:59:37.499Z,104.20
2017-11-09T12:02:05.476Z,106.75
2017-11-09T12:04:33.369Z,97.28
2017-11-09T12:07:01.338Z,99.43
2017-11-09T12:09:29.267Z,85.30
2017-11-09T12:12:00.121Z,93.60
2017-11-09T12:14:28.079Z,91.00
2017-11-09T12:16:56.068Z,85.78
2017-11-09T12:19:23.960Z,90.30
2017-11-09T12:21:51.964Z,80.87
2017-11-09T12:24:20.655Z,78.80
2017-11-09T12:26:49.443Z,80.10
2017-11-09T12:29:17.406Z,82.82
2017-11-09T12:31:46.127Z,88.57
2017-11-09T12:34:14.052Z,78.30
2017-11-09T12:36:42.764Z,76.47
2017-11-09T12:39:10.709Z,79.85
2017-11-09T12:41:38.743Z,68.45
2017-11-09T12:44:06.662Z,71.53
2017-11-09T12:46:35.435Z,59.40
2017-11-09T12:49:03.357Z,65.25
2017-11-09T12:51:31.350Z,70.05
2017-11-09T12:53:59.295Z,66.55
2017-11-09T12:56:28.036Z,58.85
2017-11-09T12:58:55.983Z,75.12
2017-11-09T13:01:23.984Z,70.87
2017-11-09T13:03:51.958Z,68.22
2017-11-09T13:06:20.768Z,60.22
2017-11-09T13:08:48.726Z,53.97
2017-11-09T13:11:16.761Z,55.42
2017-11-09T13:13:44.719Z,56.90
2017-11-09T13:16:13.488Z,52.40
2017-11-09T13:18:41.484Z,46.65
2017-11-09T13:21:09.498Z,56.45
2017-11-09T13:23:37.440Z,58.78
2017-11-09T13:26:05.381Z,47.78
2017-11-09T13:28:33.286Z,55.00
2017-11-09T13:31:02.048Z,49.67
2017-11-09T13:33:30.068Z,52.85
2017-11-09T13:35:58.021Z,47.70
2017-11-09T13:38:25.978Z,47.30
2017-11-09T13:40:53.985Z,34.80
2017-11-09T13:43:21.982Z,41.05
2017-11-09T13:45:49.954Z,45.05
2017-11-09T13:48:17.880Z,40.42
2017-11-09T13:50:45.827Z,43.20
2017-11-09T13:53:13.767Z,44.75
2017-11-09T13:55:41.691Z,39.70
2017-11-09T13:58:09.662Z,36.28
2017-11-09T14:00:40.247Z,41.50
2017-11-09T14:03:08.209Z,41.22
2017-11-09T14:05:36.130Z,37.17
2017-11-09T14:08:04.091Z,40.63
2017-11-09T14:10:32.781Z,50.53
2017-11-09T14:13:00.743Z,40.47
2017-11-09T14:15:28.646Z,40.90
2017-11-09T14:18:01.583Z,44.10
2017-11-09T14:20:30.507Z,40.28
2017-11-09T14:22:59.273Z,37.70
2017-11-09T14:25:27.183Z,39.33
2017-11-09T14:27:55.206Z,40.70
2017-11-09T14:30:23.183Z,41.40
2017-11-09T14:32:51.139Z,40.70
2017-11-09T14:35:19.152Z,40.08
2017-11-09T14:37:47.135Z,40.55
2017-11-09T14:40:15.065Z,44.05
2017-11-09T14:42:43.027Z,39.50
2017-11-09T14:45:10.941Z,42.00
2017-11-09T14:47:38.919Z,34.70
2017-11-09T14:50:06.856Z,40.85
2017-11-09T14:52:34.913Z,39.33
2017-11-09T14:55:02.834Z,42.97
2017-11-09T14:57:30.801Z,40.30
2017-11-09T14:59:58.704Z,38.78
2017-11-09T15:02:26.688Z,37.60
2017-11-09T15:04:54.594Z,39.13
2017-11-09T15:07:23.330Z,35.78
2017-11-09T15:09:51.363Z,37.15
2017-11-09T15:12:19.491Z,40.95
2017-11-09T15:14:47.457Z,37.50
2017-11-09T15:17:15.427Z,31.40
2017-11-09T15:19:43.364Z,36.13
2017-11-09T15:22:11.545Z,36.65
2017-11-09T15:24:40.258Z,35.90
2017-11-09T15:27:08.263Z,36.55
2017-11-09T15:29:36.215Z,39.70
2017-11-09T15:32:09.770Z,31.98
2017-11-09T15:34:37.717Z,35.85
2017-11-09T15:37:05.681Z,34.35
2017-11-09T15:39:33.597Z,35.88
2017-11-09T15:42:01.578Z,34.30
2017-11-09T15:44:29.495Z,36.05
2017-11-09T15:46:57.446Z,35.03
2017-11-09T15:49:25.360Z,37.38
2017-11-09T15:51:56.910Z,42.75
2017-11-09T15:54:24.810Z,40.70
2017-11-09T15:56:52.830Z,37.70
2017-11-09T15:59:20.726Z,37.60
2017-11-09T16:01:48.728Z,37.67
2017-11-09T16:04:16.650Z,37.03
2017-11-09T16:06:46.368Z,36.25
2017-11-09T16:09:16.077Z,36.13
2017-11-09T16:11:44.025Z,38.35
2017-11-09T16:14:11.971Z,50.15
2017-11-09T16:16:39.924Z,40.42
2017-11-09T16:19:07.830Z,38.22
2017-11-09T16:21:36.554Z,41.25
2017-11-09T16:24:04.455Z,43.15
2017-11-09T16:26:33.777Z,45.47
2017-11-09T16:29:03.291Z,42.45
2017-11-09T16:31:31.183Z,42.05
2017-11-09T16:33:59.137Z,41.08
2017-11-09T16:36:27.028Z,38.88
2017-11-09T16:38:54.975Z,41.28
2017-11-09T16:41:22.948Z,33.47
2017-11-09T16:43:50.912Z,45.20
2017-11-09T16:46:18.897Z,50.42
2017-11-09T16:48:46.871Z,39.90
2017-11-09T16:51:14.766Z,44.10
2017-11-09T16:53:42.732Z,41.20
2017-11-09T16:56:10.638Z,36.78
2017-11-09T16:58:38.620Z,43.63
2017-11-09T17:01:06.536Z,35.50
2017-11-09T17:03:34.484Z,34.75
2017-11-09T17:06:02.382Z,32.40
2017-11-09T17:08:30.362Z,39.72
2017-11-09T17:10:58.276Z,36.58
2017-11-09T17:13:26.994Z,35.60
2017-11-09T17:15:54.905Z,37.53
2017-11-09T17:18:23.053Z,32.20
2017-11-09T17:20:51.099Z,28.55
2017-11-09T17:23:19.291Z,28.70
2017-11-09T17:25:47.207Z,36.33
2017-11-09T17:28:15.159Z,38.35
2017-11-09T17:30:43.152Z,30.90
2017-11-09T17:33:11.905Z,30.65
2017-11-09T17:35:39.846Z,31.00
2017-11-09T17:38:07.811Z,32.75
2017-11-09T17:40:35.720Z,26.05
2017-11-09T17:43:03.665Z,27.83
2017-11-09T17:45:31.576Z,29.70
2017-11-09T17:47:59.503Z,28.98
2017-11-09T17:50:27.408Z,26.90
2017-11-09T17:52:56.479Z,33.22
2017-11-09T17:55:24.397Z,27.00
2017-11-09T17:57:52.356Z,31.80
2017-11-09T18:00:20.329Z,33.03
2017-11-09T18:02:49.098Z,30.05
2017-11-09T18:05:17.308Z,25.58
2017-11-09T18:07:45.953Z,30.02
2017-11-09T18:10:13.881Z,32.05
2017-11-09T18:12:41.867Z,29.23
2017-11-09T18:15:09.798Z,26.67
2017-11-09T18:17:37.782Z,29.52
2017-11-09T18:20:05.697Z,36.63
2017-11-09T18:22:37.654Z,31.67
2017-11-09T18:25:05.546Z,28.55
2017-11-09T18:27:34.581Z,23.33
2017-11-09T18:30:06.368Z,27.17
2017-11-09T18:32:35.122Z,27.30
2017-11-09T18:35:03.100Z,30.92
2017-11-09T18:37:31.038Z,30.02
2017-11-09T18:39:59.007Z,31.52
2017-11-09T18:42:27.674Z,25.15
2017-11-09T18:44:55.689Z,41.40
2017-11-09T18:47:23.656Z,35.80
2017-11-09T18:49:51.682Z,38.17
2017-11-09T18:52:19.688Z,41.22
2017-11-09T18:54:48.450Z,46.67
2017-11-09T18:57:16.372Z,39.20
2017-11-09T18:59:45.286Z,32.08
2017-11-09T19:02:13.187Z,36.03
2017-11-09T19:04:41.150Z,44.03
2017-11-09T19:07:09.082Z,53.95
2017-11-09T19:09:37.097Z,52.90
2017-11-09T19:12:12.091Z,41.33
2017-11-09T19:14:40.620Z,43.17
2017-11-09T19:17:08.518Z,41.40
2017-11-09T19:19:44.289Z,40.28
2017-11-09T19:22:12.877Z,40.85
2017-11-09T19:24:48.743Z,44.08
2017-11-09T19:27:17.184Z,43.08
2017-11-09T19:29:46.621Z,68.82
2017-11-09T19:32:15.168Z,64.07
2017-11-09T19:34:49.200Z,46.78
2017-11-09T19:37:18.253Z,56.30
2017-11-09T19:39:51.106Z,50.65
2017-11-09T19:42:22.025Z,56.00
2017-11-09T19:44:49.962Z,52.08
2017-11-09T19:47:22.064Z,52.30
2017-11-09T19:49:50.111Z,73.12
2017-11-09T19:52:18.044Z,82.57
2017-11-09T19:54:45.963Z,61.45
2017-11-09T19:57:13.896Z,44.92
2017-11-09T19:59:41.845Z,46.37
2017-11-09T20:02:09.726Z,30.65
2017-11-09T20:04:45.151Z,40.40
2017-11-09T20:07:13.040Z,32.83
2017-11-09T20:09:40.986Z,35.60
2017-11-09T20:12:08.874Z,35.97
2017-11-09T20:14:36.789Z,33.00
2017-11-09T20:17:04.693Z,35.70
2017-11-09T20:19:32.618Z,36.17
2017-11-09T20:22:00.522Z,32.67
2017-11-09T20:24:28.436Z,29.02
2017-11-09T20:26:56.312Z,31.75
2017-11-09T20:29:24.235Z,35.97
2017-11-09T20:31:55.352Z,36.45
2017-11-09T20:34:26.619Z,32.03
2017-11-09T20:36:54.681Z,28.85
2017-11-09T20:39:22.718Z,39.38
2017-11-09T20:41:51.368Z,37.20
2017-11-09T20:44:19.329Z,35.58
2017-11-09T20:46:47.220Z,38.33
2017-11-09T20:49:15.146Z,31.30
2017-11-09T20:51:45.899Z,35.55
2017-11-09T20:54:13.846Z,40.63
2017-11-09T20:56:41.798Z,49.88
2017-11-09T20:59:09.732Z,63.22
2017-11-09T21:01:37.604Z,58.20
2017-11-09T21:04:05.531Z,40.72
2017-11-09T21:06:33.418Z,46.17
2017-11-09T21:09:01.359Z,42.58
2017-11-09T21:11:29.254Z,38.40
2017-11-09T21:14:00.562Z,41.13
2017-11-09T21:16:29.199Z,43.75
2017-11-09T21:18:57.173Z,39.15
2017-11-09T21:21:25.059Z,71.15
2017-11-09T21:23:53.029Z,46.95
2017-11-09T21:26:21.727Z,41.17
2017-11-09T21:28:49.712Z,39.90
2017-11-09T21:31:17.686Z,38.47
2017-11-09T21:33:45.575Z,41.15
2017-11-09T21:36:13.559Z,31.80
2017-11-09T21:38:41.451Z,33.58
2017-11-09T21:41:09.391Z,31.95
2017-11-09T21:43:37.368Z,36.83
2017-11-09T21:46:05.301Z,36.53
2017-11-09T21:48:33.173Z,32.05
2017-11-09T21:51:01.146Z,33.15
2017-11-09T21:53:29.085Z,33.20
2017-11-09T21:55:57.033Z,34.60
2017-11-09T21:58:25.214Z,31.70
2017-11-09T22:00:54.638Z,30.27
2017-11-09T22:03:22.587Z,29.02
2017-11-09T22:05:50.592Z,34.72
2017-11-09T22:08:18.466Z,33.50
2017-11-09T22:10:46.409Z,37.38
2017-11-09T22:13:16.414Z,29.30
2017-11-09T22:15:44.361Z,29.45
2017-11-09T22:18:12.319Z,35.67
2017-11-09T22:20:40.364Z,32.97
2017-11-09T22:23:09.000Z,34.35
2017-11-09T22:25:38.544Z,29.77
2017-11-09T22:28:07.191Z,31.83
2017-11-09T22:30:41.932Z,34.50
2017-11-09T22:33:09.990Z,29.08
2017-11-09T22:35:39.450Z,27.77
2017-11-09T22:38:08.093Z,34.10
2017-11-09T22:40:36.283Z,30.67
2017-11-09T22:43:04.243Z,33.47
2017-11-09T22:45:32.395Z,36.53
2017-11-09T22:48:00.255Z,32.00
2017-11-09T22:50:28.162Z,29.63
2017-11-09T22:52:56.034Z,30.77
2017-11-09T22:55:24.005Z,31.00
2017-11-09T22:57:51.866Z,29.02
2017-11-09T23:00:20.049Z,33.33
2017-11-09T23:02:48.012Z,33.90
2017-11-09T23:05:15.949Z,30.08
2017-11-09T23:07:43.822Z,28.30
2017-11-09T23:10:11.813Z,34.78
2017-11-09T23:12:39.762Z,34.00
2017-11-09T23:15:07.736Z,32.58
2017-11-09T23:17:36.088Z,32.70
2017-11-09T23:20:04.081Z,36.03
2017-11-09T23:22:32.384Z,30.98
2017-11-09T23:25:00.311Z,35.50
2017-11-09T23:27:28.951Z,33.72
2017-11-09T23:30:01.002Z,35.30
2017-11-09T23:32:30.120Z,35.90
2017-11-09T23:34:58.069Z,39.67
2017-11-09T23:37:26.708Z,36.00
2017-11-09T23:40:00.275Z,28.05
2017-11-09T23:42:28.957Z,36.28
2017-11-09T23:44:56.887Z,35.58
2017-11-09T23:47:25.531Z,35.20
2017-11-09T23:49:53.457Z,39.03
2017-11-09T23:52:21.388Z,40.03
2017-11-09T23:54:50.032Z,33.47
2017-11-09T23:57:18.800Z,34.20
2017-11-09T23:59:46.739Z,40.90
